sensor_id;sensor_type;location;lat;lon;timestamp;P1;durP1;ratioP1;P2;durP2;ratioP2
24411;SDS011;12544;46.760;15.942;2023-04-24T00:00:04;5.30;;;4.80;;
24411;SDS011;12544;46.760;15.942;2023-04-24T00:02:37;6.95;;;4.50;;
24411;SDS011;12544;46.760;15.942;2023-04-24T00:05:07;4.03;;;3.63;;
24411;SDS011;12544;46.760;15.942;2023-04-24T00:07:33;4.82;;;4.32;;
24411;SDS011;12544;46.760;15.942;2023-04-24T00:09:59;4.25;;;3.83;;
24411;SDS011;12544;46.760;15.942;2023-04-24T00:12:34;4.72;;;4.32;;
24411;SDS011;12544;46.760;15.942;2023-04-24T00:15:00;5.18;;;4.53;;
24411;SDS011;12544;46.760;15.942;2023-04-24T00:17:27;5.00;;;4.13;;
24411;SDS011;12544;46.760;15.942;2023-04-24T00:19:52;5.03;;;3.90;;
24411;SDS011;12544;46.760;15.942;2023-04-24T00:22:23;5.47;;;4.22;;
24411;SDS011;12544;46.760;15.942;2023-04-24T00:24:50;4.28;;;3.88;;
24411;SDS011;12544;46.760;15.942;2023-04-24T00:27:15;4.85;;;4.35;;
24411;SDS011;12544;46.760;15.942;2023-04-24T00:29:41;4.68;;;4.28;;
24411;SDS011;12544;46.760;15.942;2023-04-24T00:32:10;4.80;;;4.30;;
24411;SDS011;12544;46.760;15.942;2023-04-24T00:34:36;4.20;;;3.78;;
24411;SDS011;12544;46.760;15.942;2023-04-24T00:37:01;5.30;;;4.38;;
24411;SDS011;12544;46.760;15.942;2023-04-24T00:39:27;4.30;;;3.90;;
24411;SDS011;12544;46.760;15.942;2023-04-24T00:41:52;4.40;;;4.00;;
24411;SDS011;12544;46.760;15.942;2023-04-24T00:44:18;4.88;;;4.35;;
24411;SDS011;12544;46.760;15.942;2023-04-24T00:46:44;6.05;;;4.72;;
24411;SDS011;12544;46.760;15.942;2023-04-24T00:49:12;4.97;;;4.47;;
24411;SDS011;12544;46.760;15.942;2023-04-24T00:51:40;4.00;;;3.50;;
24411;SDS011;12544;46.760;15.942;2023-04-24T00:54:11;7.53;;;4.20;;
24411;SDS011;12544;46.760;15.942;2023-04-24T00:56:37;4.70;;;4.20;;
24411;SDS011;12544;46.760;15.942;2023-04-24T00:59:03;4.63;;;4.22;;
24411;SDS011;12544;46.760;15.942;2023-04-24T01:01:29;4.68;;;4.03;;
24411;SDS011;12544;46.760;15.942;2023-04-24T01:03:55;4.30;;;3.90;;
24411;SDS011;12544;46.760;15.942;2023-04-24T01:06:23;4.88;;;4.15;;
24411;SDS011;12544;46.760;15.942;2023-04-24T01:08:53;4.88;;;4.00;;
24411;SDS011;12544;46.760;15.942;2023-04-24T01:11:20;4.28;;;3.88;;
24411;SDS011;12544;46.760;15.942;2023-04-24T01:13:47;5.10;;;4.57;;
24411;SDS011;12544;46.760;15.942;2023-04-24T01:16:13;3.90;;;3.60;;
24411;SDS011;12544;46.760;15.942;2023-04-24T01:21:14;6.95;;;4.47;;
24411;SDS011;12544;46.760;15.942;2023-04-24T01:23:44;4.20;;;3.80;;
24411;SDS011;12544;46.760;15.942;2023-04-24T01:26:10;4.47;;;4.00;;
24411;SDS011;12544;46.760;15.942;2023-04-24T01:28:37;5.15;;;4.43;;
24411;SDS011;12544;46.760;15.942;2023-04-24T01:31:03;4.15;;;3.67;;
24411;SDS011;12544;46.760;15.942;2023-04-24T01:33:28;5.18;;;4.28;;
24411;SDS011;12544;46.760;15.942;2023-04-24T01:35:54;5.03;;;4.28;;
24411;SDS011;12544;46.760;15.942;2023-04-24T01:38:20;6.30;;;4.95;;
24411;SDS011;12544;46.760;15.942;2023-04-24T01:40:46;4.82;;;4.43;;
24411;SDS011;12544;46.760;15.942;2023-04-24T01:43:12;5.75;;;4.40;;
24411;SDS011;12544;46.760;15.942;2023-04-24T01:45:38;5.05;;;4.65;;
24411;SDS011;12544;46.760;15.942;2023-04-24T01:48:03;5.07;;;4.68;;
24411;SDS011;12544;46.760;15.942;2023-04-24T01:50:30;5.63;;;4.88;;
24411;SDS011;12544;46.760;15.942;2023-04-24T01:52:56;4.95;;;4.32;;
24411;SDS011;12544;46.760;15.942;2023-04-24T01:55:21;4.85;;;4.35;;
24411;SDS011;12544;46.760;15.942;2023-04-24T01:57:47;5.57;;;5.07;;
24411;SDS011;12544;46.760;15.942;2023-04-24T02:00:13;4.70;;;4.20;;
24411;SDS011;12544;46.760;15.942;2023-04-24T02:02:40;5.50;;;4.22;;
24411;SDS011;12544;46.760;15.942;2023-04-24T02:05:06;6.55;;;4.85;;
24411;SDS011;12544;46.760;15.942;2023-04-24T02:07:32;5.38;;;4.88;;
24411;SDS011;12544;46.760;15.942;2023-04-24T02:09:58;5.07;;;4.45;;
24411;SDS011;12544;46.760;15.942;2023-04-24T02:12:24;5.45;;;4.78;;
24411;SDS011;12544;46.760;15.942;2023-04-24T02:14:50;7.28;;;4.53;;
24411;SDS011;12544;46.760;15.942;2023-04-24T02:17:15;4.97;;;4.57;;
24411;SDS011;12544;46.760;15.942;2023-04-24T02:19:41;6.53;;;4.20;;
24411;SDS011;12544;46.760;15.942;2023-04-24T02:22:07;4.30;;;3.90;;
24411;SDS011;12544;46.760;15.942;2023-04-24T02:24:33;4.55;;;4.15;;
24411;SDS011;12544;46.760;15.942;2023-04-24T02:26:58;5.43;;;4.97;;
24411;SDS011;12544;46.760;15.942;2023-04-24T02:29:25;4.90;;;4.40;;
24411;SDS011;12544;46.760;15.942;2023-04-24T02:31:50;5.20;;;4.60;;
24411;SDS011;12544;46.760;15.942;2023-04-24T02:34:16;5.07;;;4.60;;
24411;SDS011;12544;46.760;15.942;2023-04-24T02:36:42;5.57;;;4.47;;
24411;SDS011;12544;46.760;15.942;2023-04-24T02:39:07;4.82;;;4.25;;
24411;SDS011;12544;46.760;15.942;2023-04-24T02:41:33;5.38;;;4.70;;
24411;SDS011;12544;46.760;15.942;2023-04-24T02:43:59;5.53;;;5.03;;
24411;SDS011;12544;46.760;15.942;2023-04-24T02:46:25;5.70;;;4.20;;
24411;SDS011;12544;46.760;15.942;2023-04-24T02:48:51;4.60;;;4.10;;
24411;SDS011;12544;46.760;15.942;2023-04-24T02:51:17;4.80;;;4.32;;
24411;SDS011;12544;46.760;15.942;2023-04-24T02:53:42;5.22;;;4.15;;
24411;SDS011;12544;46.760;15.942;2023-04-24T02:56:08;5.85;;;5.28;;
24411;SDS011;12544;46.760;15.942;2023-04-24T02:58:37;5.05;;;4.65;;
24411;SDS011;12544;46.760;15.942;2023-04-24T03:01:02;4.55;;;4.20;;
24411;SDS011;12544;46.760;15.942;2023-04-24T03:03:28;4.78;;;4.10;;
24411;SDS011;12544;46.760;15.942;2023-04-24T03:06:00;5.80;;;4.90;;
24411;SDS011;12544;46.760;15.942;2023-04-24T03:08:26;6.65;;;4.72;;
24411;SDS011;12544;46.760;15.942;2023-04-24T03:10:52;5.32;;;4.15;;
24411;SDS011;12544;46.760;15.942;2023-04-24T03:13:18;4.65;;;4.25;;
24411;SDS011;12544;46.760;15.942;2023-04-24T03:15:43;5.93;;;4.47;;
24411;SDS011;12544;46.760;15.942;2023-04-24T03:18:10;4.55;;;4.15;;
24411;SDS011;12544;46.760;15.942;2023-04-24T03:20:37;3.78;;;3.47;;
24411;SDS011;12544;46.760;15.942;2023-04-24T03:23:03;4.45;;;4.05;;
24411;SDS011;12544;46.760;15.942;2023-04-24T03:25:29;5.05;;;4.55;;
24411;SDS011;12544;46.760;15.942;2023-04-24T03:27:55;9.25;;;4.90;;
24411;SDS011;12544;46.760;15.942;2023-04-24T03:30:20;5.40;;;4.40;;
24411;SDS011;12544;46.760;15.942;2023-04-24T03:32:47;4.90;;;4.38;;
24411;SDS011;12544;46.760;15.942;2023-04-24T03:35:13;4.68;;;4.15;;
24411;SDS011;12544;46.760;15.942;2023-04-24T03:37:38;4.72;;;4.30;;
24411;SDS011;12544;46.760;15.942;2023-04-24T03:40:04;4.95;;;4.45;;
24411;SDS011;12544;46.760;15.942;2023-04-24T03:42:32;5.00;;;4.50;;
24411;SDS011;12544;46.760;15.942;2023-04-24T03:44:57;4.70;;;4.28;;
24411;SDS011;12544;46.760;15.942;2023-04-24T03:47:23;5.18;;;4.50;;
24411;SDS011;12544;46.760;15.942;2023-04-24T03:49:49;5.63;;;4.78;;
24411;SDS011;12544;46.760;15.942;2023-04-24T03:52:15;4.50;;;4.10;;
24411;SDS011;12544;46.760;15.942;2023-04-24T03:54:40;4.70;;;4.28;;
24411;SDS011;12544;46.760;15.942;2023-04-24T03:57:06;5.13;;;4.03;;
24411;SDS011;12544;46.760;15.942;2023-04-24T03:59:32;5.20;;;4.07;;
24411;SDS011;12544;46.760;15.942;2023-04-24T04:01:57;5.65;;;4.55;;
24411;SDS011;12544;46.760;15.942;2023-04-24T04:04:23;4.72;;;3.95;;
24411;SDS011;12544;46.760;15.942;2023-04-24T04:06:48;4.90;;;4.43;;
24411;SDS011;12544;46.760;15.942;2023-04-24T04:09:14;4.38;;;3.97;;
24411;SDS011;12544;46.760;15.942;2023-04-24T04:11:40;5.43;;;4.40;;
24411;SDS011;12544;46.760;15.942;2023-04-24T04:14:05;5.13;;;4.63;;
24411;SDS011;12544;46.760;15.942;2023-04-24T04:16:31;4.32;;;3.92;;
24411;SDS011;12544;46.760;15.942;2023-04-24T04:18:57;5.53;;;4.25;;
24411;SDS011;12544;46.760;15.942;2023-04-24T04:21:23;4.55;;;4.15;;
24411;SDS011;12544;46.760;15.942;2023-04-24T04:23:49;6.72;;;4.90;;
24411;SDS011;12544;46.760;15.942;2023-04-24T04:26:14;5.15;;;4.75;;
24411;SDS011;12544;46.760;15.942;2023-04-24T04:28:40;5.65;;;5.13;;
24411;SDS011;12544;46.760;15.942;2023-04-24T04:31:06;5.38;;;4.90;;
24411;SDS011;12544;46.760;15.942;2023-04-24T04:33:33;5.10;;;4.68;;
24411;SDS011;12544;46.760;15.942;2023-04-24T04:35:58;5.25;;;4.70;;
24411;SDS011;12544;46.760;15.942;2023-04-24T04:38:25;5.93;;;5.07;;
24411;SDS011;12544;46.760;15.942;2023-04-24T04:40:54;5.68;;;5.18;;
24411;SDS011;12544;46.760;15.942;2023-04-24T04:43:22;8.15;;;5.30;;
24411;SDS011;12544;46.760;15.942;2023-04-24T04:45:49;6.10;;;5.20;;
24411;SDS011;12544;46.760;15.942;2023-04-24T04:48:16;5.15;;;4.63;;
24411;SDS011;12544;46.760;15.942;2023-04-24T04:50:42;5.20;;;4.80;;
24411;SDS011;12544;46.760;15.942;2023-04-24T04:55:39;6.70;;;5.15;;
24411;SDS011;12544;46.760;15.942;2023-04-24T04:58:05;6.53;;;4.85;;
24411;SDS011;12544;46.760;15.942;2023-04-24T05:00:31;5.25;;;4.75;;
24411;SDS011;12544;46.760;15.942;2023-04-24T05:03:00;6.00;;;4.35;;
24411;SDS011;12544;46.760;15.942;2023-04-24T05:05:26;4.82;;;4.43;;
24411;SDS011;12544;46.760;15.942;2023-04-24T05:07:52;6.60;;;4.70;;
24411;SDS011;12544;46.760;15.942;2023-04-24T05:10:18;4.82;;;4.35;;
24411;SDS011;12544;46.760;15.942;2023-04-24T05:12:44;5.45;;;4.50;;
24411;SDS011;12544;46.760;15.942;2023-04-24T05:15:10;6.30;;;4.97;;
24411;SDS011;12544;46.760;15.942;2023-04-24T05:17:36;4.88;;;4.22;;
24411;SDS011;12544;46.760;15.942;2023-04-24T05:20:02;5.10;;;4.70;;
24411;SDS011;12544;46.760;15.942;2023-04-24T05:22:30;6.60;;;4.97;;
24411;SDS011;12544;46.760;15.942;2023-04-24T05:24:56;6.38;;;4.45;;
24411;SDS011;12544;46.760;15.942;2023-04-24T05:27:22;5.43;;;4.88;;
24411;SDS011;12544;46.760;15.942;2023-04-24T05:29:48;5.53;;;5.03;;
24411;SDS011;12544;46.760;15.942;2023-04-24T05:32:13;5.95;;;5.03;;
24411;SDS011;12544;46.760;15.942;2023-04-24T05:34:39;5.90;;;4.95;;
24411;SDS011;12544;46.760;15.942;2023-04-24T05:37:06;8.05;;;5.22;;
24411;SDS011;12544;46.760;15.942;2023-04-24T05:39:34;5.68;;;5.10;;
24411;SDS011;12544;46.760;15.942;2023-04-24T05:42:00;5.65;;;5.10;;
24411;SDS011;12544;46.760;15.942;2023-04-24T05:44:26;5.22;;;4.72;;
24411;SDS011;12544;46.760;15.942;2023-04-24T05:46:52;5.93;;;5.40;;
24411;SDS011;12544;46.760;15.942;2023-04-24T05:49:20;5.93;;;5.35;;
24411;SDS011;12544;46.760;15.942;2023-04-24T05:51:45;5.57;;;5.07;;
24411;SDS011;12544;46.760;15.942;2023-04-24T05:54:11;8.52;;;4.88;;
24411;SDS011;12544;46.760;15.942;2023-04-24T05:56:37;5.10;;;4.70;;
24411;SDS011;12544;46.760;15.942;2023-04-24T05:59:03;5.43;;;4.93;;
24411;SDS011;12544;46.760;15.942;2023-04-24T06:01:28;5.80;;;4.72;;
24411;SDS011;12544;46.760;15.942;2023-04-24T06:04:06;5.57;;;4.97;;
24411;SDS011;12544;46.760;15.942;2023-04-24T06:06:32;6.45;;;5.32;;
24411;SDS011;12544;46.760;15.942;2023-04-24T06:08:58;5.28;;;4.75;;
24411;SDS011;12544;46.760;15.942;2023-04-24T06:11:24;5.18;;;4.68;;
24411;SDS011;12544;46.760;15.942;2023-04-24T06:13:50;5.90;;;5.32;;
24411;SDS011;12544;46.760;15.942;2023-04-24T06:16:16;6.65;;;5.28;;
24411;SDS011;12544;46.760;15.942;2023-04-24T06:18:42;7.10;;;4.85;;
24411;SDS011;12544;46.760;15.942;2023-04-24T06:21:08;7.22;;;4.97;;
24411;SDS011;12544;46.760;15.942;2023-04-24T06:23:33;7.00;;;5.30;;
24411;SDS011;12544;46.760;15.942;2023-04-24T06:26:00;5.43;;;4.82;;
24411;SDS011;12544;46.760;15.942;2023-04-24T06:28:26;5.68;;;5.10;;
24411;SDS011;12544;46.760;15.942;2023-04-24T06:30:51;5.28;;;4.70;;
24411;SDS011;12544;46.760;15.942;2023-04-24T06:33:17;4.60;;;4.15;;
24411;SDS011;12544;46.760;15.942;2023-04-24T06:35:43;5.38;;;4.88;;
24411;SDS011;12544;46.760;15.942;2023-04-24T06:38:08;7.28;;;5.65;;
24411;SDS011;12544;46.760;15.942;2023-04-24T06:40:34;6.07;;;4.63;;
24411;SDS011;12544;46.760;15.942;2023-04-24T06:43:00;5.65;;;5.15;;
24411;SDS011;12544;46.760;15.942;2023-04-24T06:45:33;6.50;;;5.10;;
24411;SDS011;12544;46.760;15.942;2023-04-24T06:47:59;5.67;;;4.83;;
24411;SDS011;12544;46.760;15.942;2023-04-24T06:50:25;7.00;;;5.03;;
24411;SDS011;12544;46.760;15.942;2023-04-24T06:52:50;7.85;;;5.68;;
24411;SDS011;12544;46.760;15.942;2023-04-24T06:55:16;5.75;;;4.70;;
24411;SDS011;12544;46.760;15.942;2023-04-24T06:57:42;6.53;;;5.93;;
24411;SDS011;12544;46.760;15.942;2023-04-24T07:00:09;5.07;;;4.60;;
24411;SDS011;12544;46.760;15.942;2023-04-24T07:02:35;5.78;;;5.18;;
24411;SDS011;12544;46.760;15.942;2023-04-24T07:05:00;6.15;;;5.55;;
24411;SDS011;12544;46.760;15.942;2023-04-24T07:07:27;5.95;;;5.25;;
24411;SDS011;12544;46.760;15.942;2023-04-24T07:09:53;5.18;;;4.60;;
24411;SDS011;12544;46.760;15.942;2023-04-24T07:12:19;5.15;;;4.65;;
24411;SDS011;12544;46.760;15.942;2023-04-24T07:14:46;6.25;;;4.75;;
24411;SDS011;12544;46.760;15.942;2023-04-24T07:17:12;5.82;;;5.20;;
24411;SDS011;12544;46.760;15.942;2023-04-24T07:19:38;6.20;;;4.93;;
24411;SDS011;12544;46.760;15.942;2023-04-24T07:22:04;7.22;;;4.90;;
24411;SDS011;12544;46.760;15.942;2023-04-24T07:24:30;5.95;;;5.35;;
24411;SDS011;12544;46.760;15.942;2023-04-24T07:26:57;7.60;;;5.68;;
24411;SDS011;12544;46.760;15.942;2023-04-24T07:29:23;6.50;;;5.68;;
24411;SDS011;12544;46.760;15.942;2023-04-24T07:31:49;7.32;;;6.50;;
24411;SDS011;12544;46.760;15.942;2023-04-24T07:34:15;8.93;;;7.07;;
24411;SDS011;12544;46.760;15.942;2023-04-24T07:36:41;8.75;;;6.63;;
24411;SDS011;12544;46.760;15.942;2023-04-24T07:39:06;7.15;;;6.45;;
24411;SDS011;12544;46.760;15.942;2023-04-24T07:41:33;10.07;;;8.25;;
24411;SDS011;12544;46.760;15.942;2023-04-24T07:43:58;8.18;;;7.30;;
24411;SDS011;12544;46.760;15.942;2023-04-24T07:46:24;7.88;;;7.05;;
24411;SDS011;12544;46.760;15.942;2023-04-24T07:48:50;10.93;;;7.50;;
24411;SDS011;12544;46.760;15.942;2023-04-24T07:51:16;7.40;;;6.47;;
24411;SDS011;12544;46.760;15.942;2023-04-24T07:53:42;6.90;;;6.20;;
24411;SDS011;12544;46.760;15.942;2023-04-24T07:56:08;10.43;;;6.40;;
24411;SDS011;12544;46.760;15.942;2023-04-24T07:58:34;6.65;;;5.65;;
24411;SDS011;12544;46.760;15.942;2023-04-24T08:01:00;10.52;;;6.55;;
24411;SDS011;12544;46.760;15.942;2023-04-24T08:03:26;8.20;;;6.82;;
24411;SDS011;12544;46.760;15.942;2023-04-24T08:05:51;6.95;;;6.35;;
24411;SDS011;12544;46.760;15.942;2023-04-24T08:08:17;7.40;;;6.70;;
24411;SDS011;12544;46.760;15.942;2023-04-24T08:10:44;6.68;;;6.07;;
24411;SDS011;12544;46.760;15.942;2023-04-24T08:13:10;8.48;;;6.25;;
24411;SDS011;12544;46.760;15.942;2023-04-24T08:15:36;8.65;;;6.55;;
24411;SDS011;12544;46.760;15.942;2023-04-24T08:18:02;6.95;;;6.25;;
24411;SDS011;12544;46.760;15.942;2023-04-24T08:20:28;8.63;;;6.68;;
24411;SDS011;12544;46.760;15.942;2023-04-24T08:22:54;8.13;;;7.32;;
24411;SDS011;12544;46.760;15.942;2023-04-24T08:25:20;8.30;;;7.50;;
24411;SDS011;12544;46.760;15.942;2023-04-24T08:27:48;7.53;;;6.82;;
24411;SDS011;12544;46.760;15.942;2023-04-24T08:30:13;9.18;;;8.32;;
24411;SDS011;12544;46.760;15.942;2023-04-24T08:32:39;8.18;;;7.40;;
24411;SDS011;12544;46.760;15.942;2023-04-24T08:35:05;8.63;;;7.65;;
24411;SDS011;12544;46.760;15.942;2023-04-24T08:37:34;9.60;;;7.82;;
24411;SDS011;12544;46.760;15.942;2023-04-24T08:39:59;9.18;;;6.38;;
24411;SDS011;12544;46.760;15.942;2023-04-24T08:42:27;7.35;;;6.63;;
24411;SDS011;12544;46.760;15.942;2023-04-24T08:44:54;7.30;;;6.60;;
24411;SDS011;12544;46.760;15.942;2023-04-24T08:47:20;9.20;;;6.78;;
24411;SDS011;12544;46.760;15.942;2023-04-24T08:49:47;6.93;;;5.80;;
24411;SDS011;12544;46.760;15.942;2023-04-24T08:52:14;9.70;;;6.97;;
24411;SDS011;12544;46.760;15.942;2023-04-24T08:54:41;6.78;;;6.10;;
24411;SDS011;12544;46.760;15.942;2023-04-24T08:57:08;9.00;;;7.15;;
24411;SDS011;12544;46.760;15.942;2023-04-24T08:59:36;7.20;;;6.50;;
24411;SDS011;12544;46.760;15.942;2023-04-24T09:02:03;7.50;;;6.50;;
24411;SDS011;12544;46.760;15.942;2023-04-24T09:04:29;6.63;;;5.47;;
24411;SDS011;12544;46.760;15.942;2023-04-24T09:06:57;6.93;;;5.68;;
24411;SDS011;12544;46.760;15.942;2023-04-24T09:09:24;6.60;;;5.90;;
24411;SDS011;12544;46.760;15.942;2023-04-24T09:11:51;6.65;;;5.13;;
24411;SDS011;12544;46.760;15.942;2023-04-24T09:14:20;6.82;;;6.13;;
24411;SDS011;12544;46.760;15.942;2023-04-24T09:16:48;5.65;;;5.15;;
24411;SDS011;12544;46.760;15.942;2023-04-24T09:19:13;7.97;;;4.85;;
24411;SDS011;12544;46.760;15.942;2023-04-24T09:21:39;6.90;;;5.38;;
24411;SDS011;12544;46.760;15.942;2023-04-24T09:24:07;6.68;;;5.45;;
24411;SDS011;12544;46.760;15.942;2023-04-24T09:26:47;7.20;;;6.50;;
24411;SDS011;12544;46.760;15.942;2023-04-24T09:29:17;7.63;;;5.40;;
24411;SDS011;12544;46.760;15.942;2023-04-24T09:31:43;7.10;;;5.40;;
24411;SDS011;12544;46.760;15.942;2023-04-24T09:34:10;8.32;;;5.85;;
24411;SDS011;12544;46.760;15.942;2023-04-24T09:36:37;6.88;;;6.18;;
24411;SDS011;12544;46.760;15.942;2023-04-24T09:39:12;6.82;;;5.38;;
24411;SDS011;12544;46.760;15.942;2023-04-24T09:41:47;8.85;;;6.60;;
24411;SDS011;12544;46.760;15.942;2023-04-24T09:44:18;6.55;;;5.95;;
24411;SDS011;12544;46.760;15.942;2023-04-24T09:46:51;6.18;;;5.57;;
24411;SDS011;12544;46.760;15.942;2023-04-24T09:49:21;6.45;;;5.88;;
24411;SDS011;12544;46.760;15.942;2023-04-24T09:51:51;7.03;;;5.88;;
24411;SDS011;12544;46.760;15.942;2023-04-24T09:56:56;8.50;;;6.82;;
24411;SDS011;12544;46.760;15.942;2023-04-24T09:59:22;6.95;;;5.85;;
24411;SDS011;12544;46.760;15.942;2023-04-24T10:01:48;10.00;;;5.22;;
24411;SDS011;12544;46.760;15.942;2023-04-24T10:04:21;6.07;;;5.10;;
24411;SDS011;12544;46.760;15.942;2023-04-24T10:06:49;10.00;;;5.65;;
24411;SDS011;12544;46.760;15.942;2023-04-24T10:09:20;7.45;;;4.97;;
24411;SDS011;12544;46.760;15.942;2023-04-24T10:11:48;7.50;;;5.28;;
24411;SDS011;12544;46.760;15.942;2023-04-24T10:14:19;7.03;;;5.25;;
24411;SDS011;12544;46.760;15.942;2023-04-24T10:16:46;5.68;;;4.90;;
24411;SDS011;12544;46.760;15.942;2023-04-24T10:19:14;7.90;;;4.55;;
24411;SDS011;12544;46.760;15.942;2023-04-24T10:21:41;6.65;;;5.65;;
24411;SDS011;12544;46.760;15.942;2023-04-24T10:24:11;9.05;;;5.88;;
24411;SDS011;12544;46.760;15.942;2023-04-24T10:26:41;9.95;;;5.72;;
24411;SDS011;12544;46.760;15.942;2023-04-24T10:29:08;8.52;;;5.70;;
24411;SDS011;12544;46.760;15.942;2023-04-24T10:31:37;6.47;;;5.75;;
24411;SDS011;12544;46.760;15.942;2023-04-24T10:34:04;8.13;;;6.63;;
24411;SDS011;12544;46.760;15.942;2023-04-24T10:36:31;6.63;;;6.03;;
24411;SDS011;12544;46.760;15.942;2023-04-24T10:38:59;7.30;;;6.57;;
24411;SDS011;12544;46.760;15.942;2023-04-24T10:41:27;9.05;;;7.32;;
24411;SDS011;12544;46.760;15.942;2023-04-24T10:44:08;11.40;;;6.60;;
24411;SDS011;12544;46.760;15.942;2023-04-24T10:46:35;9.23;;;6.72;;
24411;SDS011;12544;46.760;15.942;2023-04-24T10:49:07;7.93;;;6.78;;
24411;SDS011;12544;46.760;15.942;2023-04-24T10:51:43;8.45;;;7.65;;
24411;SDS011;12544;46.760;15.942;2023-04-24T10:56:52;8.15;;;7.05;;
24411;SDS011;12544;46.760;15.942;2023-04-24T10:59:25;7.97;;;7.28;;
24411;SDS011;12544;46.760;15.942;2023-04-24T11:01:55;9.30;;;8.40;;
24411;SDS011;12544;46.760;15.942;2023-04-24T11:04:30;8.20;;;7.38;;
24411;SDS011;12544;46.760;15.942;2023-04-24T11:06:56;8.75;;;7.65;;
24411;SDS011;12544;46.760;15.942;2023-04-24T11:09:23;7.88;;;7.13;;
24411;SDS011;12544;46.760;15.942;2023-04-24T11:12:05;7.90;;;6.85;;
24411;SDS011;12544;46.760;15.942;2023-04-24T11:17:42;7.70;;;6.85;;
24411;SDS011;12544;46.760;15.942;2023-04-24T11:20:08;7.07;;;6.38;;
24411;SDS011;12544;46.760;15.942;2023-04-24T11:22:43;8.50;;;7.30;;
24411;SDS011;12544;46.760;15.942;2023-04-24T11:25:09;8.35;;;6.82;;
24411;SDS011;12544;46.760;15.942;2023-04-24T11:27:40;9.18;;;8.32;;
24411;SDS011;12544;46.760;15.942;2023-04-24T11:30:07;7.85;;;7.20;;
24411;SDS011;12544;46.760;15.942;2023-04-24T11:32:39;9.10;;;8.05;;
24411;SDS011;12544;46.760;15.942;2023-04-24T11:37:40;8.13;;;7.35;;
24411;SDS011;12544;46.760;15.942;2023-04-24T11:40:31;10.57;;;8.13;;
24411;SDS011;12544;46.760;15.942;2023-04-24T11:42:59;9.23;;;7.50;;
24411;SDS011;12544;46.760;15.942;2023-04-24T11:45:26;7.97;;;7.18;;
24411;SDS011;12544;46.760;15.942;2023-04-24T11:47:53;10.45;;;7.75;;
24411;SDS011;12544;46.760;15.942;2023-04-24T11:50:20;7.63;;;6.93;;
24411;SDS011;12544;46.760;15.942;2023-04-24T11:52:48;7.97;;;7.20;;
24411;SDS011;12544;46.760;15.942;2023-04-24T11:57:44;9.60;;;7.95;;
24411;SDS011;12544;46.760;15.942;2023-04-24T12:02:43;8.77;;;7.90;;
24411;SDS011;12544;46.760;15.942;2023-04-24T12:05:12;7.53;;;6.32;;
24411;SDS011;12544;46.760;15.942;2023-04-24T12:07:48;7.35;;;6.65;;
24411;SDS011;12544;46.760;15.942;2023-04-24T12:10:14;7.22;;;6.53;;
24411;SDS011;12544;46.760;15.942;2023-04-24T12:12:44;5.70;;;5.20;;
24411;SDS011;12544;46.760;15.942;2023-04-24T12:15:11;6.88;;;6.18;;
24411;SDS011;12544;46.760;15.942;2023-04-24T12:17:40;6.18;;;5.57;;
24411;SDS011;12544;46.760;15.942;2023-04-24T12:20:06;9.40;;;5.60;;
24411;SDS011;12544;46.760;15.942;2023-04-24T12:22:46;6.05;;;5.38;;
24411;SDS011;12544;46.760;15.942;2023-04-24T12:25:16;5.95;;;5.30;;
24411;SDS011;12544;46.760;15.942;2023-04-24T12:27:44;6.10;;;5.07;;
24411;SDS011;12544;46.760;15.942;2023-04-24T12:30:14;5.68;;;5.18;;
24411;SDS011;12544;46.760;15.942;2023-04-24T12:32:50;5.00;;;4.50;;
24411;SDS011;12544;46.760;15.942;2023-04-24T12:35:20;6.40;;;4.60;;
24411;SDS011;12544;46.760;15.942;2023-04-24T12:37:47;5.13;;;4.63;;
24411;SDS011;12544;46.760;15.942;2023-04-24T12:40:13;5.25;;;4.18;;
24411;SDS011;12544;46.760;15.942;2023-04-24T12:42:43;4.40;;;4.00;;
24411;SDS011;12544;46.760;15.942;2023-04-24T12:45:12;5.22;;;4.55;;
24411;SDS011;12544;46.760;15.942;2023-04-24T12:47:39;4.28;;;3.88;;
24411;SDS011;12544;46.760;15.942;2023-04-24T12:50:06;3.55;;;3.25;;
24411;SDS011;12544;46.760;15.942;2023-04-24T12:52:33;5.50;;;3.50;;
24411;SDS011;12544;46.760;15.942;2023-04-24T12:54:59;4.15;;;3.78;;
24411;SDS011;12544;46.760;15.942;2023-04-24T12:57:26;3.28;;;2.97;;
24411;SDS011;12544;46.760;15.942;2023-04-24T12:59:56;3.45;;;3.15;;
24411;SDS011;12544;46.760;15.942;2023-04-24T13:02:23;3.38;;;2.83;;
24411;SDS011;12544;46.760;15.942;2023-04-24T13:04:50;3.92;;;2.80;;
24411;SDS011;12544;46.760;15.942;2023-04-24T13:07:16;3.63;;;2.72;;
24411;SDS011;12544;46.760;15.942;2023-04-24T13:09:43;2.20;;;2.00;;
24411;SDS011;12544;46.760;15.942;2023-04-24T13:12:10;2.90;;;2.15;;
24411;SDS011;12544;46.760;15.942;2023-04-24T13:14:36;2.83;;;1.85;;
24411;SDS011;12544;46.760;15.942;2023-04-24T13:17:02;3.28;;;2.10;;
24411;SDS011;12544;46.760;15.942;2023-04-24T13:19:28;2.38;;;1.88;;
24411;SDS011;12544;46.760;15.942;2023-04-24T13:21:55;3.20;;;2.17;;
24411;SDS011;12544;46.760;15.942;2023-04-24T13:24:24;2.00;;;1.80;;
24411;SDS011;12544;46.760;15.942;2023-04-24T13:26:51;3.05;;;1.77;;
24411;SDS011;12544;46.760;15.942;2023-04-24T13:29:17;2.38;;;1.80;;
24411;SDS011;12544;46.760;15.942;2023-04-24T13:31:43;1.75;;;1.58;;
24411;SDS011;12544;46.760;15.942;2023-04-24T13:34:09;3.08;;;1.63;;
24411;SDS011;12544;46.760;15.942;2023-04-24T13:36:36;3.03;;;1.58;;
24411;SDS011;12544;46.760;15.942;2023-04-24T13:39:02;1.88;;;1.27;;
24411;SDS011;12544;46.760;15.942;2023-04-24T13:41:32;1.83;;;1.30;;
24411;SDS011;12544;46.760;15.942;2023-04-24T13:43:58;2.67;;;2.30;;
24411;SDS011;12544;46.760;15.942;2023-04-24T13:46:24;1.50;;;1.40;;
24411;SDS011;12544;46.760;15.942;2023-04-24T13:48:50;1.20;;;1.10;;
24411;SDS011;12544;46.760;15.942;2023-04-24T13:51:15;1.30;;;1.00;;
24411;SDS011;12544;46.760;15.942;2023-04-24T13:53:41;1.30;;;1.13;;
24411;SDS011;12544;46.760;15.942;2023-04-24T13:56:07;1.58;;;0.95;;
24411;SDS011;12544;46.760;15.942;2023-04-24T13:58:33;0.80;;;0.80;;
24411;SDS011;12544;46.760;15.942;2023-04-24T14:01:01;0.82;;;0.82;;
24411;SDS011;12544;46.760;15.942;2023-04-24T14:03:28;0.70;;;0.70;;
24411;SDS011;12544;46.760;15.942;2023-04-24T14:05:55;1.10;;;1.00;;
24411;SDS011;12544;46.760;15.942;2023-04-24T14:08:20;0.55;;;0.55;;
24411;SDS011;12544;46.760;15.942;2023-04-24T14:10:46;0.80;;;0.68;;
24411;SDS011;12544;46.760;15.942;2023-04-24T14:13:12;1.48;;;1.00;;
24411;SDS011;12544;46.760;15.942;2023-04-24T14:15:38;0.90;;;0.90;;
24411;SDS011;12544;46.760;15.942;2023-04-24T14:18:04;1.35;;;0.82;;
24411;SDS011;12544;46.760;15.942;2023-04-24T14:20:30;1.25;;;1.13;;
24411;SDS011;12544;46.760;15.942;2023-04-24T14:22:55;1.10;;;1.00;;
24411;SDS011;12544;46.760;15.942;2023-04-24T14:25:24;0.90;;;0.73;;
24411;SDS011;12544;46.760;15.942;2023-04-24T14:27:49;1.63;;;0.85;;
24411;SDS011;12544;46.760;15.942;2023-04-24T14:30:22;4.22;;;1.20;;
24411;SDS011;12544;46.760;15.942;2023-04-24T14:32:48;1.95;;;1.10;;
24411;SDS011;12544;46.760;15.942;2023-04-24T14:35:13;1.65;;;0.85;;
24411;SDS011;12544;46.760;15.942;2023-04-24T14:37:39;0.85;;;0.85;;
24411;SDS011;12544;46.760;15.942;2023-04-24T14:40:06;1.83;;;0.80;;
24411;SDS011;12544;46.760;15.942;2023-04-24T14:42:33;2.08;;;0.82;;
24411;SDS011;12544;46.760;15.942;2023-04-24T14:44:59;1.33;;;0.98;;
24411;SDS011;12544;46.760;15.942;2023-04-24T14:47:24;3.85;;;1.10;;
24411;SDS011;12544;46.760;15.942;2023-04-24T14:49:50;0.80;;;0.80;;
24411;SDS011;12544;46.760;15.942;2023-04-24T14:52:16;0.70;;;0.70;;